^^
Station Historical Data
Daily Summary for April 8, 2017 Units:  Both    English   Metric
« Previous Day
Next Day »
Daily Weekly Monthly Yearly Custom
  High: Low: Average:
Temperature: 75.6 °F /  24.2 °C 59.7 °F /  15.4 °C 63.2 °F /  17.3 °C
Dew Point: 61.5 °F /  16.4 °C 41.2 °F /  5.1 °C 54.8 °F /  12.7 °C
Humidity: 92% 46% 75%
Wind Speed: 10.1mph /  16.3km/h - 0.8mph /  1.3km/h
Wind Gust: 12.0mph /  19.3km/h - -
Wind- - South
Pressure: 30.37 in /  1028.3 hPa 30.21 in /  1022.9 hPa -
Precipitation: 0.09 in /  2.29 mm    
Historical Graphs
 
 
Tabular Data for April 8, 2017
Time Temperature Dew Point Pressure Wind Wind Speed Wind Gust Humidity Rainfall Rate (Hourly) solar Conditions
00:02 62.2 °F /  16.8 °C 41.2 °F /  5.1 °C 30.24in /  1023.9hPa Calm     46% 0.00in /  0mm 0.0 W/m2
00:08 62.1 °F /  16.7 °C 41.5 °F /  5.3 °C 30.24in /  1023.9hPa Calm     47% 0.00in /  0mm 0.0 W/m2
00:14 61.9 °F /  16.6 °C 41.9 °F /  5.5 °C 30.24in /  1023.9hPa Calm     48% 0.00in /  0mm 0.0 W/m2
00:20 61.7 °F /  16.5 °C 42.3 °F /  5.7 °C 30.24in /  1023.9hPa Calm   1.0mph /  1.6km/h 49% 0.00in /  0mm 0.0 W/m2
00:26 61.5 °F /  16.4 °C 42.6 °F /  5.9 °C 30.24in /  1023.9hPa Calm     50% 0.00in /  0mm 0.0 W/m2
00:32 61.3 °F /  16.3 °C 42.6 °F /  5.9 °C 30.24in /  1023.9hPa Calm     50% 0.00in /  0mm 0.0 W/m2
00:38 61.2 °F /  16.2 °C 43.0 °F /  6.1 °C 30.24in /  1023.9hPa Calm     51% 0.00in /  0mm 0.0 W/m2
00:45 61.0 °F /  16.1 °C 42.8 °F /  6 °C 30.24in /  1023.9hPa Calm   1.0mph /  1.6km/h 51% 0.00in /  0mm 0.0 W/m2
00:51 60.6 °F /  15.9 °C 43.0 °F /  6.1 °C 30.23in /  1023.6hPa Calm     52% 0.00in /  0mm 0.0 W/m2
00:57 60.4 °F /  15.8 °C 43.2 °F /  6.2 °C 30.23in /  1023.6hPa Calm   1.0mph /  1.6km/h 53% 0.00in /  0mm 0.0 W/m2
01:03 60.3 °F /  15.7 °C 43.0 °F /  6.1 °C 30.23in /  1023.6hPa Calm   3.0mph /  4.8km/h 53% 0.00in /  0mm 0.0 W/m2
01:09 60.3 °F /  15.7 °C 43.0 °F /  6.1 °C 30.23in /  1023.6hPa Calm   2.0mph /  3.2km/h 53% 0.00in /  0mm 0.0 W/m2
01:15 60.3 °F /  15.7 °C 43.5 °F /  6.4 °C 30.23in /  1023.6hPa Calm     54% 0.00in /  0mm 0.0 W/m2
01:21 60.1 °F /  15.6 °C 43.9 °F /  6.6 °C 30.23in /  1023.6hPa Calm   1.0mph /  1.6km/h 55% 0.00in /  0mm 0.0 W/m2
01:27 60.1 °F /  15.6 °C 44.8 °F /  7.1 °C 30.23in /  1023.6hPa Calm   2.0mph /  3.2km/h 57% 0.00in /  0mm 0.0 W/m2
01:34 60.1 °F /  15.6 °C 44.8 °F /  7.1 °C 30.23in /  1023.6hPa ENE 0.9mph /  1.4km/h 2.0mph /  3.2km/h 57% 0.00in /  0mm 0.0 W/m2
01:40 60.1 °F /  15.6 °C 44.8 °F /  7.1 °C 30.23in /  1023.6hPa Calm   1.0mph /  1.6km/h 57% 0.00in /  0mm 0.0 W/m2
01:46 60.1 °F /  15.6 °C 45.3 °F /  7.4 °C 30.23in /  1023.6hPa NE 0.9mph /  1.4km/h 2.0mph /  3.2km/h 58% 0.00in /  0mm 0.0 W/m2
01:52 60.1 °F /  15.6 °C 45.7 °F /  7.6 °C 30.23in /  1023.6hPa Calm     59% 0.00in /  0mm 0.0 W/m2
01:58 60.1 °F /  15.6 °C 46.2 °F /  7.9 °C 30.23in /  1023.6hPa Calm   1.0mph /  1.6km/h 60% 0.00in /  0mm 0.0 W/m2
02:04 60.1 °F /  15.6 °C 46.6 °F /  8.1 °C 30.23in /  1023.6hPa Calm     61% 0.00in /  0mm 0.0 W/m2
02:10 60.1 °F /  15.6 °C 47.5 °F /  8.6 °C 30.23in /  1023.6hPa Calm     63% 0.00in /  0mm 0.0 W/m2
02:17 60.3 °F /  15.7 °C 48.0 °F /  8.9 °C 30.23in /  1023.6hPa Calm     64% 0.00in /  0mm 0.0 W/m2
02:23 60.3 °F /  15.7 °C 48.4 °F /  9.1 °C 30.23in /  1023.6hPa East 0.9mph /  1.4km/h 3.0mph /  4.8km/h 65% 0.00in /  0mm 0.0 W/m2
02:29 60.3 °F /  15.7 °C 48.0 °F /  8.9 °C 30.23in /  1023.6hPa Calm   3.0mph /  4.8km/h 64% 0.00in /  0mm 0.0 W/m2
02:35 60.4 °F /  15.8 °C 48.2 °F /  9 °C 30.23in /  1023.6hPa East 0.9mph /  1.4km/h 3.0mph /  4.8km/h 64% 0.00in /  0mm 0.0 W/m2
02:41 60.6 °F /  15.9 °C 48.4 °F /  9.1 °C 30.23in /  1023.6hPa Calm   2.0mph /  3.2km/h 64% 0.00in /  0mm 0.0 W/m2
02:47 60.6 °F /  15.9 °C 48.7 °F /  9.3 °C 30.23in /  1023.6hPa Calm   3.0mph /  4.8km/h 65% 0.00in /  0mm 0.0 W/m2
02:53 60.6 °F /  15.9 °C 49.3 °F /  9.6 °C 30.23in /  1023.6hPa Calm   1.0mph /  1.6km/h 66% 0.00in /  0mm 0.0 W/m2
03:00 61.0 °F /  16.1 °C 50.0 °F /  10 °C 30.23in /  1023.6hPa Calm   1.0mph /  1.6km/h 67% 0.00in /  0mm 0.0 W/m2
03:06 61.0 °F /  16.1 °C 50.4 °F /  10.2 °C 30.22in /  1023.2hPa East 0.9mph /  1.4km/h 2.0mph /  3.2km/h 68% 0.00in /  0mm 0.0 W/m2
03:12 61.2 °F /  16.2 °C 50.9 °F /  10.5 °C 30.22in /  1023.2hPa Calm   1.0mph /  1.6km/h 69% 0.00in /  0mm 0.0 W/m2
03:18 61.2 °F /  16.2 °C 50.9 °F /  10.5 °C 30.22in /  1023.2hPa Calm     69% 0.00in /  0mm 0.0 W/m2
03:24 61.2 °F /  16.2 °C 51.3 °F /  10.7 °C 30.22in /  1023.2hPa Calm     70% 0.00in /  0mm 0.0 W/m2
03:30 61.2 °F /  16.2 °C 51.3 °F /  10.7 °C 30.22in /  1023.2hPa Calm     70% 0.00in /  0mm 0.0 W/m2
03:36 61.2 °F /  16.2 °C 51.6 °F /  10.9 °C 30.21in /  1022.9hPa Calm     71% 0.00in /  0mm 0.0 W/m2
03:42 61.0 °F /  16.1 °C 51.4 °F /  10.8 °C 30.22in /  1023.2hPa Calm     71% 0.00in /  0mm 0.0 W/m2
03:49 61.0 °F /  16.1 °C 52.0 °F /  11.1 °C 30.21in /  1022.9hPa Calm   1.0mph /  1.6km/h 72% 0.00in /  0mm 0.0 W/m2
03:55 61.0 °F /  16.1 °C 52.0 °F /  11.1 °C 30.21in /  1022.9hPa Calm     72% 0.00in /  0mm 0.0 W/m2
04:01 61.0 °F /  16.1 °C 52.0 °F /  11.1 °C 30.21in /  1022.9hPa Calm   1.0mph /  1.6km/h 72% 0.00in /  0mm 0.0 W/m2
04:07 60.8 °F /  16 °C 51.8 °F /  11 °C 30.21in /  1022.9hPa Calm     72% 0.00in /  0mm 0.0 W/m2
04:13 60.6 °F /  15.9 °C 52.0 °F /  11.1 °C 30.21in /  1022.9hPa Calm     73% 0.00in /  0mm 0.0 W/m2
04:19 60.6 °F /  15.9 °C 52.0 °F /  11.1 °C 30.21in /  1022.9hPa Calm     73% 0.00in /  0mm 0.0 W/m2
04:25 60.6 °F /  15.9 °C 52.3 °F /  11.3 °C 30.21in /  1022.9hPa Calm     74% 0.00in /  0mm 0.0 W/m2
04:32 60.4 °F /  15.8 °C 52.5 °F /  11.4 °C 30.21in /  1022.9hPa Calm     75% 0.00in /  0mm 0.0 W/m2
04:38 60.4 °F /  15.8 °C 52.5 °F /  11.4 °C 30.21in /  1022.9hPa Calm     75% 0.00in /  0mm 0.0 W/m2
04:44 60.4 °F /  15.8 °C 52.5 °F /  11.4 °C 30.21in /  1022.9hPa Calm     75% 0.00in /  0mm 0.0 W/m2
04:50 60.4 °F /  15.8 °C 52.9 °F /  11.6 °C 30.21in /  1022.9hPa Calm     76% 0.00in /  0mm 0.0 W/m2
04:56 60.4 °F /  15.8 °C 53.2 °F /  11.8 °C 30.21in /  1022.9hPa Calm     77% 0.00in /  0mm 0.0 W/m2
05:02 60.4 °F /  15.8 °C 53.2 °F /  11.8 °C 30.21in /  1022.9hPa Calm     77% 0.00in /  0mm 0.0 W/m2
05:08 60.6 °F /  15.9 °C 53.8 °F /  12.1 °C 30.21in /  1022.9hPa ENE 0.9mph /  1.4km/h 2.0mph /  3.2km/h 78% 0.00in /  0mm 0.0 W/m2
05:14 60.6 °F /  15.9 °C 53.8 °F /  12.1 °C 30.21in /  1022.9hPa ESE 0.9mph /  1.4km/h 2.0mph /  3.2km/h 78% 0.00in /  0mm 0.0 W/m2
05:20 61.0 °F /  16.1 °C 53.8 °F /  12.1 °C 30.21in /  1022.9hPa Calm   1.0mph /  1.6km/h 77% 0.00in /  0mm 0.0 W/m2
05:27 61.2 °F /  16.2 °C 54.0 °F /  12.2 °C 30.21in /  1022.9hPa Calm     77% 0.00in /  0mm 0.0 W/m2
05:33 61.2 °F /  16.2 °C 54.0 °F /  12.2 °C 30.22in /  1023.2hPa Calm   1.0mph /  1.6km/h 77% 0.00in /  0mm 0.0 W/m2
05:39 61.3 °F /  16.3 °C 54.1 °F /  12.3 °C 30.22in /  1023.2hPa Calm   1.0mph /  1.6km/h 77% 0.00in /  0mm 0.0 W/m2
05:45 61.3 °F /  16.3 °C 54.1 °F /  12.3 °C 30.22in /  1023.2hPa Calm   2.0mph /  3.2km/h 77% 0.00in /  0mm 0.0 W/m2
05:51 61.3 °F /  16.3 °C 54.1 °F /  12.3 °C 30.22in /  1023.2hPa Calm     77% 0.00in /  0mm 0.0 W/m2
05:57 61.3 °F /  16.3 °C 54.1 °F /  12.3 °C 30.22in /  1023.2hPa Calm   1.0mph /  1.6km/h 77% 0.00in /  0mm 0.0 W/m2
06:04 61.3 °F /  16.3 °C 54.1 °F /  12.3 °C 30.22in /  1023.2hPa Calm   2.0mph /  3.2km/h 77% 0.00in /  0mm 0.0 W/m2
06:10 61.3 °F /  16.3 °C 54.1 °F /  12.3 °C 30.22in /  1023.2hPa Calm   1.0mph /  1.6km/h 77% 0.00in /  0mm 7.0 W/m2
06:16 61.3 °F /  16.3 °C 54.1 °F /  12.3 °C 30.22in /  1023.2hPa Calm   1.0mph /  1.6km/h 77% 0.00in /  0mm 12.0 W/m2
06:22 61.2 °F /  16.2 °C 54.0 °F /  12.2 °C 30.23in /  1023.6hPa Calm     77% 0.00in /  0mm 19.0 W/m2
06:28 61.2 °F /  16.2 °C 54.0 °F /  12.2 °C 30.23in /  1023.6hPa Calm   1.0mph /  1.6km/h 77% 0.00in /  0mm 26.0 W/m2
06:34 61.2 °F /  16.2 °C 54.3 °F /  12.4 °C 30.23in /  1023.6hPa Calm   4.0mph /  6.4km/h 78% 0.00in /  0mm 26.0 W/m2
06:40 61.3 °F /  16.3 °C 54.5 °F /  12.5 °C 30.23in /  1023.6hPa Calm   1.0mph /  1.6km/h 78% 0.00in /  0mm 32.0 W/m2
06:47 61.5 °F /  16.4 °C 54.7 °F /  12.6 °C 30.23in /  1023.6hPa Calm     78% 0.00in /  0mm 39.0 W/m2
06:53 61.7 °F /  16.5 °C 54.9 °F /  12.7 °C 30.23in /  1023.6hPa Calm     78% 0.00in /  0mm 58.0 W/m2
06:59 61.9 °F /  16.6 °C 54.9 °F /  12.7 °C 30.23in /  1023.6hPa Calm     78% 0.00in /  0mm 77.0 W/m2
07:05 62.2 °F /  16.8 °C 54.9 °F /  12.7 °C 30.24in /  1023.9hPa NNE 0.9mph /  1.4km/h 1.0mph /  1.6km/h 77% 0.00in /  0mm 77.0 W/m2
07:11 62.8 °F /  17.1 °C 54.7 °F /  12.6 °C 30.24in /  1023.9hPa Calm     75% 0.00in /  0mm 70.0 W/m2
07:17 63.3 °F /  17.4 °C 54.9 °F /  12.7 °C 30.24in /  1023.9hPa Calm   2.0mph /  3.2km/h 74% 0.00in /  0mm 79.0 W/m2
07:23 64.0 °F /  17.8 °C 55.2 °F /  12.9 °C 30.25in /  1024.3hPa ENE 0.9mph /  1.4km/h 4.0mph /  6.4km/h 73% 0.00in /  0mm 98.0 W/m2
07:29 64.6 °F /  18.1 °C 55.0 °F /  12.8 °C 30.25in /  1024.3hPa East 4.0mph /  6.4km/h 4.0mph /  6.4km/h 71% 0.00in /  0mm 100.0 W/m2
07:35 64.8 °F /  18.2 °C 55.2 °F /  12.9 °C 30.25in /  1024.3hPa NE 2.9mph /  4.7km/h 4.0mph /  6.4km/h 71% 0.00in /  0mm 84.0 W/m2
07:42 64.9 °F /  18.3 °C 54.9 °F /  12.7 °C 30.25in /  1024.3hPa Calm   3.0mph /  4.8km/h 70% 0.00in /  0mm 100.0 W/m2
07:48 65.1 °F /  18.4 °C 55.4 °F /  13 °C 30.26in /  1024.6hPa Calm     71% 0.00in /  0mm 116.0 W/m2
07:54 65.5 °F /  18.6 °C 55.4 °F /  13 °C 30.26in /  1024.6hPa Calm   1.0mph /  1.6km/h 70% 0.00in /  0mm 97.0 W/m2
08:00 65.7 °F /  18.7 °C 55.6 °F /  13.1 °C 30.26in /  1024.6hPa Calm     70% 0.00in /  0mm 114.0 W/m2
08:06 65.8 °F /  18.8 °C 55.8 °F /  13.2 °C 30.26in /  1024.6hPa Calm     70% 0.00in /  0mm 158.0 W/m2
08:12 66.4 °F /  19.1 °C 55.6 °F /  13.1 °C 30.26in /  1024.6hPa Calm   4.0mph /  6.4km/h 68% 0.00in /  0mm 167.0 W/m2
08:19 66.9 °F /  19.4 °C 55.6 °F /  13.1 °C 30.26in /  1024.6hPa North 0.9mph /  1.4km/h 3.0mph /  4.8km/h 67% 0.00in /  0mm 174.0 W/m2
08:25 67.5 °F /  19.7 °C 55.8 °F /  13.2 °C 30.26in /  1024.6hPa Calm   2.0mph /  3.2km/h 66% 0.00in /  0mm 181.0 W/m2
08:31 67.8 °F /  19.9 °C 55.6 °F /  13.1 °C 30.26in /  1024.6hPa NNW 0.9mph /  1.4km/h 2.0mph /  3.2km/h 65% 0.00in /  0mm 195.0 W/m2
08:37 68.4 °F /  20.2 °C 56.1 °F /  13.4 °C 30.26in /  1024.6hPa North 4.9mph /  7.9km/h 5.0mph /  8km/h 65% 0.00in /  0mm 199.0 W/m2
08:41 68.7 °F /  20.4 °C 56.5 °F /  13.6 °C 30.26in /  1024.6hPa Calm   5.0mph /  8km/h 65% 0.00in /  0mm 207.0 W/m2
08:47 69.1 °F /  20.6 °C 56.5 °F /  13.6 °C 30.26in /  1024.6hPa NE 2.0mph /  3.2km/h 9.0mph /  14.5km/h 64% 0.00in /  0mm 313.0 W/m2
08:53 69.6 °F /  20.9 °C 57.4 °F /  14.1 °C 30.26in /  1024.6hPa NE 4.0mph /  6.4km/h 7.0mph /  11.3km/h 65% 0.00in /  0mm 236.0 W/m2
08:59 70.7 °F /  21.5 °C 57.0 °F /  13.9 °C 30.26in /  1024.6hPa North 4.0mph /  6.4km/h 6.0mph /  9.7km/h 62% 0.00in /  0mm 144.0 W/m2
09:05 71.2 °F /  21.8 °C 57.0 °F /  13.9 °C 30.26in /  1024.6hPa Calm   7.0mph /  11.3km/h 61% 0.00in /  0mm 234.0 W/m2
09:12 71.8 °F /  22.1 °C 57.2 °F /  14 °C 30.26in /  1024.6hPa NE 4.9mph /  7.9km/h 11.0mph /  17.7km/h 60% 0.00in /  0mm 828.0 W/m2
09:18 72.3 °F /  22.4 °C 57.7 °F /  14.3 °C 30.26in /  1024.6hPa NW 4.0mph /  6.4km/h 7.0mph /  11.3km/h 60% 0.00in /  0mm 232.0 W/m2
09:24 72.3 °F /  22.4 °C 57.2 °F /  14 °C 30.26in /  1024.6hPa North 6.9mph /  11.1km/h 11.0mph /  17.7km/h 59% 0.00in /  0mm 216.0 W/m2
09:30 72.3 °F /  22.4 °C 57.2 °F /  14 °C 30.25in /  1024.3hPa NNW 10.1mph /  16.3km/h 12.0mph /  19.3km/h 59% 0.00in /  0mm 323.0 W/m2
09:36 72.3 °F /  22.4 °C 57.2 °F /  14 °C 30.25in /  1024.3hPa North 2.9mph /  4.7km/h 7.0mph /  11.3km/h 59% 0.00in /  0mm 329.0 W/m2
09:42 72.9 °F /  22.7 °C 57.7 °F /  14.3 °C 30.25in /  1024.3hPa SSW 0.9mph /  1.4km/h 8.0mph /  12.9km/h 59% 0.00in /  0mm 327.0 W/m2
09:48 73.0 °F /  22.8 °C 56.8 °F /  13.8 °C 30.25in /  1024.3hPa North 0.9mph /  1.4km/h 9.0mph /  14.5km/h 57% 0.00in /  0mm 318.0 W/m2
09:54 73.2 °F /  22.9 °C 57.0 °F /  13.9 °C 30.25in /  1024.3hPa NNW 4.9mph /  7.9km/h 10.0mph /  16.1km/h 57% 0.00in /  0mm 258.0 W/m2
10:01 73.2 °F /  22.9 °C 57.0 °F /  13.9 °C 30.25in /  1024.3hPa NE 6.0mph /  9.7km/h 12.0mph /  19.3km/h 57% 0.00in /  0mm 267.0 W/m2
10:07 73.2 °F /  22.9 °C 57.0 °F /  13.9 °C 30.25in /  1024.3hPa NNW 6.0mph /  9.7km/h 9.0mph /  14.5km/h 57% 0.00in /  0mm 334.0 W/m2
10:13 73.2 °F /  22.9 °C 57.0 °F /  13.9 °C 30.25in /  1024.3hPa West 0.9mph /  1.4km/h 6.0mph /  9.7km/h 57% 0.00in /  0mm 313.0 W/m2
10:19 73.4 °F /  23 °C 57.2 °F /  14 °C 30.25in /  1024.3hPa NNE 4.0mph /  6.4km/h 8.0mph /  12.9km/h 57% 0.00in /  0mm 392.0 W/m2
10:25 73.9 °F /  23.3 °C 57.2 °F /  14 °C 30.24in /  1023.9hPa NNE 2.9mph /  4.7km/h 7.0mph /  11.3km/h 56% 0.00in /  0mm 396.0 W/m2
10:31 74.3 °F /  23.5 °C 57.6 °F /  14.2 °C 30.24in /  1023.9hPa NNW 4.9mph /  7.9km/h 9.0mph /  14.5km/h 56% 0.00in /  0mm 323.0 W/m2
10:37 74.1 °F /  23.4 °C 57.4 °F /  14.1 °C 30.24in /  1023.9hPa North 6.9mph /  11.1km/h 7.0mph /  11.3km/h 56% 0.00in /  0mm 239.0 W/m2
10:43 73.6 °F /  23.1 °C 57.4 °F /  14.1 °C 30.24in /  1023.9hPa WNW 2.9mph /  4.7km/h 5.0mph /  8km/h 57% 0.00in /  0mm 246.0 W/m2
10:50 73.6 °F /  23.1 °C 57.9 °F /  14.4 °C 30.24in /  1023.9hPa Calm   12.0mph /  19.3km/h 58% 0.00in /  0mm 420.0 W/m2
10:56 73.8 °F /  23.2 °C 58.5 °F /  14.7 °C 30.23in /  1023.6hPa WNW 4.0mph /  6.4km/h 5.0mph /  8km/h 59% 0.00in /  0mm 367.0 W/m2
11:02 74.1 °F /  23.4 °C 58.8 °F /  14.9 °C 30.23in /  1023.6hPa NNW 4.0mph /  6.4km/h 5.0mph /  8km/h 59% 0.00in /  0mm 360.0 W/m2
11:08 74.8 °F /  23.8 °C 59.0 °F /  15 °C 30.23in /  1023.6hPa Calm   2.0mph /  3.2km/h 58% 0.00in /  0mm 1072.0 W/m2
11:14 75.6 °F /  24.2 °C 58.8 °F /  14.9 °C 30.23in /  1023.6hPa NW 2.0mph /  3.2km/h 3.0mph /  4.8km/h 56% 0.00in /  0mm 248.0 W/m2
11:20 75.4 °F /  24.1 °C 58.1 °F /  14.5 °C 30.23in /  1023.6hPa NNW 10.1mph /  16.3km/h 11.0mph /  17.7km/h 55% 0.00in /  0mm 221.0 W/m2
11:27 74.1 °F /  23.4 °C 58.8 °F /  14.9 °C 30.23in /  1023.6hPa NNW 10.1mph /  16.3km/h 10.1mph /  16.3km/h 59% 0.00in /  0mm 213.0 W/m2
11:35 72.7 °F /  22.6 °C 61.5 °F /  16.4 °C 30.23in /  1023.6hPa NNE 0.9mph /  1.4km/h 3.0mph /  4.8km/h 68% 0.00in /  0mm 316.0 W/m2
11:41 71.4 °F /  21.9 °C 61.2 °F /  16.2 °C 30.23in /  1023.6hPa NNW 6.0mph /  9.7km/h 6.0mph /  9.7km/h 70% 0.00in /  0mm 309.0 W/m2
11:47 70.9 °F /  21.6 °C 60.6 °F /  15.9 °C 30.22in /  1023.2hPa NW 2.0mph /  3.2km/h 2.0mph /  3.2km/h 70% 0.00in /  0mm 417.0 W/m2
11:53 70.7 °F /  21.5 °C 59.2 °F /  15.1 °C 30.22in /  1023.2hPa North 8.1mph /  13km/h 12.0mph /  19.3km/h 67% 0.00in /  0mm 181.0 W/m2
11:59 70.2 °F /  21.2 °C 58.3 °F /  14.6 °C 30.22in /  1023.2hPa North 2.9mph /  4.7km/h 7.0mph /  11.3km/h 66% 0.00in /  0mm 171.0 W/m2
12:05 69.8 °F /  21 °C 57.9 °F /  14.4 °C 30.22in /  1023.2hPa Calm   1.0mph /  1.6km/h 66% 0.00in /  0mm 107.0 W/m2
12:11 69.4 °F /  20.8 °C 58.5 °F /  14.7 °C 30.22in /  1023.2hPa Calm   3.0mph /  4.8km/h 68% 0.00in /  0mm 109.0 W/m2
12:17 69.3 °F /  20.7 °C 58.3 °F /  14.6 °C 30.21in /  1022.9hPa Calm   5.0mph /  8km/h 68% 0.00in /  0mm 105.0 W/m2
12:24 68.9 °F /  20.5 °C 58.3 °F /  14.6 °C 30.21in /  1022.9hPa Calm   2.0mph /  3.2km/h 69% 0.00in /  0mm 102.0 W/m2
12:30 68.7 °F /  20.4 °C 58.1 °F /  14.5 °C 30.21in /  1022.9hPa Calm   3.0mph /  4.8km/h 69% 0.00in /  0mm 130.0 W/m2
12:36 68.7 °F /  20.4 °C 57.7 °F /  14.3 °C 30.22in /  1023.2hPa North 6.0mph /  9.7km/h 7.0mph /  11.3km/h 68% 0.00in /  0mm 98.0 W/m2
12:42 68.7 °F /  20.4 °C 57.4 °F /  14.1 °C 30.21in /  1022.9hPa Calm   3.0mph /  4.8km/h 67% 0.00in /  0mm 105.0 W/m2
12:48 68.7 °F /  20.4 °C 56.1 °F /  13.4 °C 30.22in /  1023.2hPa Calm   5.0mph /  8km/h 64% 0.00in /  0mm 67.0 W/m2
12:54 68.7 °F /  20.4 °C 56.1 °F /  13.4 °C 30.21in /  1022.9hPa Calm   6.0mph /  9.7km/h 64% 0.00in /  0mm 47.0 W/m2
13:00 68.4 °F /  20.2 °C 56.5 °F /  13.6 °C 30.22in /  1023.2hPa Calm   7.0mph /  11.3km/h 66% 0.00in /  0mm 32.0 W/m2
13:06 68.0 °F /  20 °C 57.0 °F /  13.9 °C 30.23in /  1023.6hPa Calm   6.0mph /  9.7km/h 68% 0.00in /  0mm 21.0 W/m2
13:13 67.6 °F /  19.8 °C 55.4 °F /  13 °C 30.22in /  1023.2hPa North 6.0mph /  9.7km/h 7.0mph /  11.3km/h 65% 0.00in /  0mm 18.0 W/m2
13:19 67.3 °F /  19.6 °C 55.0 °F /  12.8 °C 30.22in /  1023.2hPa Calm   7.0mph /  11.3km/h 65% 0.00in /  0mm 12.0 W/m2
13:25 66.7 °F /  19.3 °C 56.3 °F /  13.5 °C 30.23in /  1023.6hPa NW 2.9mph /  4.7km/h 7.0mph /  11.3km/h 69% 0.00in /  0mm 11.0 W/m2
13:31 65.8 °F /  18.8 °C 57.4 °F /  14.1 °C 30.23in /  1023.6hPa Calm   7.0mph /  11.3km/h 74% 0.01in /  0.25mm 9.0 W/m2
13:39 64.0 °F /  17.8 °C 56.7 °F /  13.7 °C 30.22in /  1023.2hPa Calm   1.0mph /  1.6km/h 77% 0.02in /  0.51mm 7.0 W/m2
13:45 63.0 °F /  17.2 °C 56.7 °F /  13.7 °C 30.23in /  1023.6hPa NNW 2.9mph /  4.7km/h 5.0mph /  8km/h 80% 0.02in /  0.51mm 7.0 W/m2
13:51 62.1 °F /  16.7 °C 56.5 °F /  13.6 °C 30.23in /  1023.6hPa WNW 2.0mph /  3.2km/h 4.0mph /  6.4km/h 82% 0.02in /  0.51mm 5.0 W/m2
14:00 61.3 °F /  16.3 °C 56.5 °F /  13.6 °C 30.24in /  1023.9hPa West 0.9mph /  1.4km/h 1.0mph /  1.6km/h 84% 0.02in /  0.51mm 7.0 W/m2
14:06 61.0 °F /  16.1 °C 56.8 °F /  13.8 °C 30.24in /  1023.9hPa Calm     86% 0.02in /  0.51mm 9.0 W/m2
14:12 60.6 °F /  15.9 °C 56.5 °F /  13.6 °C 30.25in /  1024.3hPa Calm   4.0mph /  6.4km/h 86% 0.02in /  0.51mm 11.0 W/m2
14:18 60.3 °F /  15.7 °C 56.3 °F /  13.5 °C 30.26in /  1024.6hPa Calm     87% 0.03in /  0.76mm 11.0 W/m2
14:24 60.1 °F /  15.6 °C 56.5 °F /  13.6 °C 30.27in /  1024.9hPa Calm     88% 0.03in /  0.76mm 9.0 W/m2
14:30 59.9 °F /  15.5 °C 56.7 °F /  13.7 °C 30.27in /  1024.9hPa Calm     89% 0.03in /  0.76mm 9.0 W/m2
14:36 59.7 °F /  15.4 °C 56.5 °F /  13.6 °C 30.28in /  1025.3hPa Calm     89% 0.02in /  0.51mm 9.0 W/m2
14:42 59.9 °F /  15.5 °C 57.0 °F /  13.9 °C 30.28in /  1025.3hPa Calm     90% 0.03in /  0.76mm 7.0 W/m2
14:49 59.9 °F /  15.5 °C 57.2 °F /  14 °C 30.28in /  1025.3hPa Calm     91% 0.04in /  1.02mm 7.0 W/m2
14:55 60.1 °F /  15.6 °C 57.4 °F /  14.1 °C 30.28in /  1025.3hPa Calm     91% 0.05in /  1.27mm 7.0 W/m2
15:01 60.1 °F /  15.6 °C 57.4 °F /  14.1 °C 30.27in /  1024.9hPa Calm     91% 0.05in /  1.27mm 7.0 W/m2
15:07 60.3 °F /  15.7 °C 57.9 °F /  14.4 °C 30.27in /  1024.9hPa Calm     92% 0.05in /  1.27mm 9.0 W/m2
15:13 60.3 °F /  15.7 °C 57.6 °F /  14.2 °C 30.26in /  1024.6hPa ESE 4.0mph /  6.4km/h 4.0mph /  6.4km/h 91% 0.05in /  1.27mm 12.0 W/m2
15:19 60.3 °F /  15.7 °C 57.6 °F /  14.2 °C 30.26in /  1024.6hPa ESE 2.0mph /  3.2km/h 2.0mph /  3.2km/h 91% 0.05in /  1.27mm 18.0 W/m2
15:25 60.3 °F /  15.7 °C 57.9 °F /  14.4 °C 30.26in /  1024.6hPa SSW 0.9mph /  1.4km/h 1.0mph /  1.6km/h 92% 0.04in /  1.02mm 18.0 W/m2
15:31 60.1 °F /  15.6 °C 57.4 °F /  14.1 °C 30.26in /  1024.6hPa Calm     91% 0.05in /  1.27mm 25.0 W/m2
15:37 60.1 °F /  15.6 °C 57.4 °F /  14.1 °C 30.26in /  1024.6hPa Calm     91% 0.05in /  1.27mm 37.0 W/m2
15:43 60.3 °F /  15.7 °C 57.9 °F /  14.4 °C 30.26in /  1024.6hPa Calm     92% 0.04in /  1.02mm 40.0 W/m2
15:50 60.3 °F /  15.7 °C 57.9 °F /  14.4 °C 30.24in /  1023.9hPa Calm   1.0mph /  1.6km/h 92% 0.02in /  0.51mm 37.0 W/m2
15:56 60.4 °F /  15.8 °C 58.1 °F /  14.5 °C 30.24in /  1023.9hPa Calm   2.0mph /  3.2km/h 92% 0.02in /  0.51mm 44.0 W/m2
16:02 60.4 °F /  15.8 °C 57.7 °F /  14.3 °C 30.24in /  1023.9hPa Calm   5.0mph /  8km/h 91% 0.02in /  0.51mm 72.0 W/m2
16:08 60.6 °F /  15.9 °C 58.3 °F /  14.6 °C 30.24in /  1023.9hPa Calm   4.0mph /  6.4km/h 92% 0.01in /  0.25mm 84.0 W/m2
16:14 60.8 °F /  16 °C 58.5 °F /  14.7 °C 30.24in /  1023.9hPa Calm   1.0mph /  1.6km/h 92% 0.01in /  0.25mm 49.0 W/m2
16:20 61.0 °F /  16.1 °C 58.3 °F /  14.6 °C 30.24in /  1023.9hPa Calm   1.0mph /  1.6km/h 91% 0.01in /  0.25mm 40.0 W/m2
16:26 61.0 °F /  16.1 °C 58.3 °F /  14.6 °C 30.23in /  1023.6hPa Calm   2.0mph /  3.2km/h 91% 0.01in /  0.25mm 51.0 W/m2
16:32 61.2 °F /  16.2 °C 58.8 °F /  14.9 °C 30.23in /  1023.6hPa ENE 0.9mph /  1.4km/h 1.0mph /  1.6km/h 92% 0.00in /  0mm 88.0 W/m2
16:38 61.5 °F /  16.4 °C 59.2 °F /  15.1 °C 30.23in /  1023.6hPa SE 4.0mph /  6.4km/h 4.0mph /  6.4km/h 92% 0.00in /  0mm 98.0 W/m2
16:44 61.9 °F /  16.6 °C 59.5 °F /  15.3 °C 30.22in /  1023.2hPa Calm   7.0mph /  11.3km/h 92% 0.00in /  0mm 56.0 W/m2
16:50 62.1 °F /  16.7 °C 59.4 °F /  15.2 °C 30.23in /  1023.6hPa Calm   2.0mph /  3.2km/h 91% 0.00in /  0mm 47.0 W/m2
16:56 62.1 °F /  16.7 °C 59.4 °F /  15.2 °C 30.23in /  1023.6hPa NNE 2.9mph /  4.7km/h 5.0mph /  8km/h 91% 0.00in /  0mm 56.0 W/m2
17:03 62.2 °F /  16.8 °C 59.2 °F /  15.1 °C 30.24in /  1023.9hPa WSW 0.9mph /  1.4km/h 3.0mph /  4.8km/h 90% 0.00in /  0mm 47.0 W/m2
17:09 62.4 °F /  16.9 °C 58.5 °F /  14.7 °C 30.25in /  1024.3hPa Calm     87% 0.00in /  0mm 37.0 W/m2
17:15 62.2 °F /  16.8 °C 57.9 °F /  14.4 °C 30.25in /  1024.3hPa NNE 0.9mph /  1.4km/h 3.0mph /  4.8km/h 86% 0.00in /  0mm 26.0 W/m2
17:21 62.2 °F /  16.8 °C 57.9 °F /  14.4 °C 30.26in /  1024.6hPa ENE 2.9mph /  4.7km/h 4.0mph /  6.4km/h 86% 0.00in /  0mm 19.0 W/m2
17:27 62.2 °F /  16.8 °C 57.9 °F /  14.4 °C 30.27in /  1024.9hPa Calm   1.0mph /  1.6km/h 86% 0.00in /  0mm 18.0 W/m2
17:33 62.2 °F /  16.8 °C 58.3 °F /  14.6 °C 30.27in /  1024.9hPa Calm   1.0mph /  1.6km/h 87% 0.00in /  0mm 14.0 W/m2
17:39 62.2 °F /  16.8 °C 57.9 °F /  14.4 °C 30.29in /  1025.6hPa ENE 2.0mph /  3.2km/h 7.0mph /  11.3km/h 86% 0.00in /  0mm 5.0 W/m2
17:45 62.2 °F /  16.8 °C 57.4 °F /  14.1 °C 30.29in /  1025.6hPa NNE 2.9mph /  4.7km/h 8.0mph /  12.9km/h 84% 0.00in /  0mm 0.0 W/m2
17:51 62.2 °F /  16.8 °C 57.0 °F /  13.9 °C 30.28in /  1025.3hPa NE 0.9mph /  1.4km/h 4.0mph /  6.4km/h 83% 0.00in /  0mm 0.0 W/m2
17:57 62.1 °F /  16.7 °C 56.8 °F /  13.8 °C 30.28in /  1025.3hPa Calm   1.0mph /  1.6km/h 83% 0.00in /  0mm 0.0 W/m2
18:03 61.9 °F /  16.6 °C 57.0 °F /  13.9 °C 30.28in /  1025.3hPa Calm   1.0mph /  1.6km/h 84% 0.00in /  0mm 0.0 W/m2
18:09 61.5 °F /  16.4 °C 56.7 °F /  13.7 °C 30.28in /  1025.3hPa Calm     84% 0.00in /  0mm 0.0 W/m2
18:15 61.3 °F /  16.3 °C 56.8 °F /  13.8 °C 30.28in /  1025.3hPa ESE 0.9mph /  1.4km/h 3.0mph /  4.8km/h 85% 0.00in /  0mm 0.0 W/m2
18:21 61.0 °F /  16.1 °C 56.8 °F /  13.8 °C 30.28in /  1025.3hPa Calm   1.0mph /  1.6km/h 86% 0.00in /  0mm 0.0 W/m2
18:28 60.6 °F /  15.9 °C 56.1 °F /  13.4 °C 30.28in /  1025.3hPa Calm   3.0mph /  4.8km/h 85% 0.00in /  0mm 0.0 W/m2
18:34 60.4 °F /  15.8 °C 55.9 °F /  13.3 °C 30.29in /  1025.6hPa Calm   1.0mph /  1.6km/h 85% 0.00in /  0mm 0.0 W/m2
18:40 60.4 °F /  15.8 °C 56.3 °F /  13.5 °C 30.30in /  1026hPa Calm   1.0mph /  1.6km/h 86% 0.00in /  0mm 0.0 W/m2
18:46 60.3 °F /  15.7 °C 56.1 °F /  13.4 °C 30.31in /  1026.3hPa Calm     86% 0.00in /  0mm 0.0 W/m2
18:52 60.3 °F /  15.7 °C 56.1 °F /  13.4 °C 30.31in /  1026.3hPa Calm   2.0mph /  3.2km/h 86% 0.00in /  0mm 0.0 W/m2
18:58 60.1 °F /  15.6 °C 55.9 °F /  13.3 °C 30.31in /  1026.3hPa Calm   3.0mph /  4.8km/h 86% 0.00in /  0mm 0.0 W/m2
19:04 60.1 °F /  15.6 °C 55.9 °F /  13.3 °C 30.32in /  1026.6hPa Calm   1.0mph /  1.6km/h 86% 0.00in /  0mm 0.0 W/m2
19:10 60.1 °F /  15.6 °C 56.1 °F /  13.4 °C 30.32in /  1026.6hPa Calm   2.0mph /  3.2km/h 87% 0.00in /  0mm 0.0 W/m2
19:17 60.1 °F /  15.6 °C 56.1 °F /  13.4 °C 30.32in /  1026.6hPa Calm     87% 0.00in /  0mm 0.0 W/m2
19:23 59.9 °F /  15.5 °C 55.9 °F /  13.3 °C 30.33in /  1027hPa Calm     87% 0.00in /  0mm 0.0 W/m2
19:29 59.7 °F /  15.4 °C 55.8 °F /  13.2 °C 30.33in /  1027hPa Calm     87% 0.00in /  0mm 0.0 W/m2
19:35 59.7 °F /  15.4 °C 55.8 °F /  13.2 °C 30.34in /  1027.3hPa Calm     87% 0.00in /  0mm 0.0 W/m2
19:41 59.7 °F /  15.4 °C 55.8 °F /  13.2 °C 30.35in /  1027.7hPa Calm     87% 0.00in /  0mm 0.0 W/m2
19:47 59.7 °F /  15.4 °C 55.8 °F /  13.2 °C 30.35in /  1027.7hPa Calm   1.0mph /  1.6km/h 87% 0.00in /  0mm 0.0 W/m2
19:53 59.7 °F /  15.4 °C 55.8 °F /  13.2 °C 30.35in /  1027.7hPa Calm     87% 0.00in /  0mm 0.0 W/m2
19:59 60.1 °F /  15.6 °C 56.1 °F /  13.4 °C 30.35in /  1027.7hPa Calm   1.0mph /  1.6km/h 87% 0.00in /  0mm 0.0 W/m2
20:05 60.1 °F /  15.6 °C 56.5 °F /  13.6 °C 30.35in /  1027.7hPa Calm   1.0mph /  1.6km/h 88% 0.00in /  0mm 0.0 W/m2
20:11 60.1 °F /  15.6 °C 56.5 °F /  13.6 °C 30.36in /  1028hPa Calm   1.0mph /  1.6km/h 88% 0.00in /  0mm 0.0 W/m2
20:17 60.1 °F /  15.6 °C 56.5 °F /  13.6 °C 30.36in /  1028hPa Calm     88% 0.00in /  0mm 0.0 W/m2
20:24 60.1 °F /  15.6 °C 56.1 °F /  13.4 °C 30.36in /  1028hPa Calm     87% 0.00in /  0mm 0.0 W/m2
20:30 60.1 °F /  15.6 °C 55.9 °F /  13.3 °C 30.36in /  1028hPa Calm     86% 0.00in /  0mm 0.0 W/m2
20:36 60.3 °F /  15.7 °C 56.1 °F /  13.4 °C 30.36in /  1028hPa Calm     86% 0.00in /  0mm 0.0 W/m2
20:42 60.3 °F /  15.7 °C 56.1 °F /  13.4 °C 30.37in /  1028.3hPa Calm     86% 0.00in /  0mm 0.0 W/m2
20:48 60.3 °F /  15.7 °C 56.1 °F /  13.4 °C 30.36in /  1028hPa Calm   2.0mph /  3.2km/h 86% 0.00in /  0mm 0.0 W/m2
20:54 60.4 °F /  15.8 °C 56.5 °F /  13.6 °C 30.37in /  1028.3hPa Calm   2.0mph /  3.2km/h 87% 0.00in /  0mm 0.0 W/m2
21:00 60.4 °F /  15.8 °C 56.5 °F /  13.6 °C 30.37in /  1028.3hPa Calm     87% 0.00in /  0mm 0.0 W/m2
21:06 60.6 °F /  15.9 °C 57.0 °F /  13.9 °C 30.37in /  1028.3hPa Calm   5.0mph /  8km/h 88% 0.00in /  0mm 0.0 W/m2
21:12 60.6 °F /  15.9 °C 56.7 °F /  13.7 °C 30.37in /  1028.3hPa Calm     87% 0.00in /  0mm 0.0 W/m2
21:18 60.6 °F /  15.9 °C 56.7 °F /  13.7 °C 30.37in /  1028.3hPa Calm     87% 0.00in /  0mm 0.0 W/m2
21:24 60.6 °F /  15.9 °C 57.0 °F /  13.9 °C 30.37in /  1028.3hPa Calm     88% 0.00in /  0mm 0.0 W/m2
21:30 60.6 °F /  15.9 °C 57.0 °F /  13.9 °C 30.37in /  1028.3hPa Calm     88% 0.00in /  0mm 0.0 W/m2
21:36 60.6 °F /  15.9 °C 57.0 °F /  13.9 °C 30.37in /  1028.3hPa Calm     88% 0.00in /  0mm 0.0 W/m2
21:42 60.4 °F /  15.8 °C 56.8 °F /  13.8 °C 30.36in /  1028hPa Calm     88% 0.00in /  0mm 0.0 W/m2
21:48 60.4 °F /  15.8 °C 56.8 °F /  13.8 °C 30.36in /  1028hPa Calm     88% 0.00in /  0mm 0.0 W/m2
21:54 60.3 °F /  15.7 °C 56.7 °F /  13.7 °C 30.37in /  1028.3hPa Calm     88% 0.00in /  0mm 0.0 W/m2
22:00 60.3 °F /  15.7 °C 56.7 °F /  13.7 °C 30.37in /  1028.3hPa Calm     88% 0.00in /  0mm 0.0 W/m2
22:06 60.3 °F /  15.7 °C 57.0 °F /  13.9 °C 30.37in /  1028.3hPa Calm     89% 0.00in /  0mm 0.0 W/m2
22:12 60.1 °F /  15.6 °C 56.8 °F /  13.8 °C 30.37in /  1028.3hPa Calm     89% 0.00in /  0mm 0.0 W/m2
22:18 60.1 °F /  15.6 °C 56.8 °F /  13.8 °C 30.36in /  1028hPa Calm     89% 0.00in /  0mm 0.0 W/m2
22:24 60.1 °F /  15.6 °C 56.8 °F /  13.8 °C 30.36in /  1028hPa Calm     89% 0.00in /  0mm 0.0 W/m2
22:30 60.1 °F /  15.6 °C 57.2 °F /  14 °C 30.36in /  1028hPa Calm   1.0mph /  1.6km/h 90% 0.00in /  0mm 0.0 W/m2
22:36 60.1 °F /  15.6 °C 57.2 °F /  14 °C 30.36in /  1028hPa Calm     90% 0.00in /  0mm 0.0 W/m2
22:42 60.1 °F /  15.6 °C 57.2 °F /  14 °C 30.36in /  1028hPa Calm     90% 0.00in /  0mm 0.0 W/m2
22:48 60.1 °F /  15.6 °C 57.2 °F /  14 °C 30.36in /  1028hPa Calm     90% 0.00in /  0mm 0.0 W/m2
22:54 59.9 °F /  15.5 °C 57.0 °F /  13.9 °C 30.35in /  1027.7hPa Calm   4.0mph /  6.4km/h 90% 0.00in /  0mm 0.0 W/m2
23:00 59.7 °F /  15.4 °C 56.8 °F /  13.8 °C 30.35in /  1027.7hPa Calm   1.0mph /  1.6km/h 90% 0.00in /  0mm 0.0 W/m2
23:06 59.7 °F /  15.4 °C 56.8 °F /  13.8 °C 30.35in /  1027.7hPa Calm     90% 0.00in /  0mm 0.0 W/m2
23:12 59.7 °F /  15.4 °C 56.8 °F /  13.8 °C 30.34in /  1027.3hPa Calm     90% 0.00in /  0mm 0.0 W/m2
23:18 59.7 °F /  15.4 °C 56.8 °F /  13.8 °C 30.34in /  1027.3hPa Calm   3.0mph /  4.8km/h 90% 0.00in /  0mm 0.0 W/m2
23:25 59.7 °F /  15.4 °C 56.5 °F /  13.6 °C 30.33in /  1027hPa Calm   3.0mph /  4.8km/h 89% 0.00in /  0mm 0.0 W/m2
23:31 59.7 °F /  15.4 °C 56.5 °F /  13.6 °C 30.33in /  1027hPa SE 0.9mph /  1.4km/h 1.0mph /  1.6km/h 89% 0.00in /  0mm 0.0 W/m2
23:37 59.7 °F /  15.4 °C 56.1 °F /  13.4 °C 30.33in /  1027hPa Calm   4.0mph /  6.4km/h 88% 0.00in /  0mm 0.0 W/m2
23:43 59.9 °F /  15.5 °C 55.9 °F /  13.3 °C 30.33in /  1027hPa Calm   2.0mph /  3.2km/h 87% 0.00in /  0mm 0.0 W/m2
23:49 59.9 °F /  15.5 °C 55.9 °F /  13.3 °C 30.33in /  1027hPa Calm     87% 0.00in /  0mm 0.0 W/m2
23:55 60.1 °F /  15.6 °C 56.1 °F /  13.4 °C 30.33in /  1027hPa Calm     87% 0.00in /  0mm 0.0 W/m2
Olympia, Windhoek, Namibia
Compliments of Weather Underground - 3 mb